sensor_id;sensor_type;location;lat;lon;timestamp;P1;durP1;ratioP1;P2;durP2;ratioP2
42364;SDS011;28498;54.400;18.566;2023-06-22T00:00:15;10.65;;;7.15;;
42364;SDS011;28498;54.400;18.566;2023-06-22T00:02:42;14.10;;;7.50;;
42364;SDS011;28498;54.400;18.566;2023-06-22T00:05:09;11.68;;;7.78;;
42364;SDS011;28498;54.400;18.566;2023-06-22T00:07:36;10.05;;;6.93;;
42364;SDS011;28498;54.400;18.566;2023-06-22T00:10:04;12.80;;;7.60;;
42364;SDS011;28498;54.400;18.566;2023-06-22T00:12:31;11.90;;;7.40;;
42364;SDS011;28498;54.400;18.566;2023-06-22T00:14:58;11.35;;;6.35;;
42364;SDS011;28498;54.400;18.566;2023-06-22T00:17:25;13.80;;;7.50;;
42364;SDS011;28498;54.400;18.566;2023-06-22T00:19:52;9.90;;;7.13;;
42364;SDS011;28498;54.400;18.566;2023-06-22T00:22:22;11.60;;;7.22;;
42364;SDS011;28498;54.400;18.566;2023-06-22T00:24:55;10.05;;;7.18;;
42364;SDS011;28498;54.400;18.566;2023-06-22T00:27:23;12.02;;;8.00;;
42364;SDS011;28498;54.400;18.566;2023-06-22T00:29:50;11.63;;;7.43;;
42364;SDS011;28498;54.400;18.566;2023-06-22T00:32:18;15.38;;;7.97;;
42364;SDS011;28498;54.400;18.566;2023-06-22T00:34:45;11.68;;;7.75;;
42364;SDS011;28498;54.400;18.566;2023-06-22T00:37:12;11.15;;;7.15;;
42364;SDS011;28498;54.400;18.566;2023-06-22T00:39:39;11.88;;;7.80;;
42364;SDS011;28498;54.400;18.566;2023-06-22T00:42:06;11.55;;;7.85;;
42364;SDS011;28498;54.400;18.566;2023-06-22T00:44:34;10.65;;;7.68;;
42364;SDS011;28498;54.400;18.566;2023-06-22T00:47:02;14.45;;;7.72;;
42364;SDS011;28498;54.400;18.566;2023-06-22T00:49:30;10.15;;;7.80;;
42364;SDS011;28498;54.400;18.566;2023-06-22T00:51:57;10.48;;;7.38;;
42364;SDS011;28498;54.400;18.566;2023-06-22T00:54:25;12.23;;;8.50;;
42364;SDS011;28498;54.400;18.566;2023-06-22T00:56:53;11.50;;;8.05;;
42364;SDS011;28498;54.400;18.566;2023-06-22T00:59:23;10.18;;;7.22;;
42364;SDS011;28498;54.400;18.566;2023-06-22T01:01:52;12.70;;;7.72;;
42364;SDS011;28498;54.400;18.566;2023-06-22T01:04:19;13.95;;;7.82;;
42364;SDS011;28498;54.400;18.566;2023-06-22T01:06:50;13.63;;;7.35;;
42364;SDS011;28498;54.400;18.566;2023-06-22T01:09:27;13.98;;;8.40;;
42364;SDS011;28498;54.400;18.566;2023-06-22T01:12:00;10.38;;;7.00;;
42364;SDS011;28498;54.400;18.566;2023-06-22T01:17:29;14.77;;;7.60;;
42364;SDS011;28498;54.400;18.566;2023-06-22T01:19:58;13.88;;;7.43;;
42364;SDS011;28498;54.400;18.566;2023-06-22T01:22:31;13.35;;;8.73;;
42364;SDS011;28498;54.400;18.566;2023-06-22T01:25:10;15.60;;;7.95;;
42364;SDS011;28498;54.400;18.566;2023-06-22T01:30:28;12.93;;;8.63;;
42364;SDS011;28498;54.400;18.566;2023-06-22T01:32:57;17.98;;;8.98;;
42364;SDS011;28498;54.400;18.566;2023-06-22T01:35:25;13.13;;;8.30;;
42364;SDS011;28498;54.400;18.566;2023-06-22T01:37:53;14.23;;;8.20;;
42364;SDS011;28498;54.400;18.566;2023-06-22T01:40:21;13.55;;;8.65;;
42364;SDS011;28498;54.400;18.566;2023-06-22T01:42:49;14.25;;;8.05;;
42364;SDS011;28498;54.400;18.566;2023-06-22T01:45:17;13.98;;;8.48;;
42364;SDS011;28498;54.400;18.566;2023-06-22T01:47:45;14.60;;;9.45;;
42364;SDS011;28498;54.400;18.566;2023-06-22T01:50:13;13.18;;;8.43;;
42364;SDS011;28498;54.400;18.566;2023-06-22T01:52:40;12.77;;;8.48;;
42364;SDS011;28498;54.400;18.566;2023-06-22T01:55:07;15.10;;;8.18;;
42364;SDS011;28498;54.400;18.566;2023-06-22T01:57:35;16.02;;;8.45;;
42364;SDS011;28498;54.400;18.566;2023-06-22T02:00:03;13.60;;;8.52;;
42364;SDS011;28498;54.400;18.566;2023-06-22T02:02:43;13.38;;;8.70;;
42364;SDS011;28498;54.400;18.566;2023-06-22T02:05:24;18.17;;;9.07;;
42364;SDS011;28498;54.400;18.566;2023-06-22T02:07:58;13.80;;;8.80;;
42364;SDS011;28498;54.400;18.566;2023-06-22T02:10:35;14.45;;;8.95;;
42364;SDS011;28498;54.400;18.566;2023-06-22T02:13:05;15.65;;;8.82;;
42364;SDS011;28498;54.400;18.566;2023-06-22T02:15:34;16.00;;;10.20;;
42364;SDS011;28498;54.400;18.566;2023-06-22T02:18:01;15.48;;;9.40;;
42364;SDS011;28498;54.400;18.566;2023-06-22T02:20:29;15.45;;;9.95;;
42364;SDS011;28498;54.400;18.566;2023-06-22T02:22:56;15.00;;;9.27;;
42364;SDS011;28498;54.400;18.566;2023-06-22T02:25:24;13.07;;;9.68;;
42364;SDS011;28498;54.400;18.566;2023-06-22T02:27:51;14.95;;;10.38;;
42364;SDS011;28498;54.400;18.566;2023-06-22T02:30:18;15.73;;;10.45;;
42364;SDS011;28498;54.400;18.566;2023-06-22T02:32:45;13.68;;;9.80;;
42364;SDS011;28498;54.400;18.566;2023-06-22T02:35:13;15.68;;;10.32;;
42364;SDS011;28498;54.400;18.566;2023-06-22T02:37:40;15.00;;;10.07;;
42364;SDS011;28498;54.400;18.566;2023-06-22T02:40:10;20.88;;;12.10;;
42364;SDS011;28498;54.400;18.566;2023-06-22T02:42:39;18.38;;;10.98;;
42364;SDS011;28498;54.400;18.566;2023-06-22T02:45:07;14.82;;;10.80;;
42364;SDS011;28498;54.400;18.566;2023-06-22T02:47:34;19.65;;;12.20;;
42364;SDS011;28498;54.400;18.566;2023-06-22T02:50:01;18.55;;;11.73;;
42364;SDS011;28498;54.400;18.566;2023-06-22T02:52:28;18.20;;;11.57;;
42364;SDS011;28498;54.400;18.566;2023-06-22T02:54:56;22.50;;;11.55;;
42364;SDS011;28498;54.400;18.566;2023-06-22T02:57:23;19.05;;;12.55;;
42364;SDS011;28498;54.400;18.566;2023-06-22T02:59:50;20.13;;;12.63;;
42364;SDS011;28498;54.400;18.566;2023-06-22T03:02:17;23.83;;;12.60;;
42364;SDS011;28498;54.400;18.566;2023-06-22T03:04:47;20.83;;;12.20;;
42364;SDS011;28498;54.400;18.566;2023-06-22T03:07:15;18.55;;;11.57;;
42364;SDS011;28498;54.400;18.566;2023-06-22T03:09:44;20.40;;;11.93;;
42364;SDS011;28498;54.400;18.566;2023-06-22T03:12:11;21.10;;;12.23;;
42364;SDS011;28498;54.400;18.566;2023-06-22T03:14:38;16.13;;;11.18;;
42364;SDS011;28498;54.400;18.566;2023-06-22T03:17:05;19.05;;;11.27;;
42364;SDS011;28498;54.400;18.566;2023-06-22T03:19:32;18.15;;;10.27;;
42364;SDS011;28498;54.400;18.566;2023-06-22T03:21:59;17.23;;;10.70;;
42364;SDS011;28498;54.400;18.566;2023-06-22T03:24:27;15.70;;;9.77;;
42364;SDS011;28498;54.400;18.566;2023-06-22T03:26:56;14.55;;;9.68;;
42364;SDS011;28498;54.400;18.566;2023-06-22T03:29:23;15.52;;;10.07;;
42364;SDS011;28498;54.400;18.566;2023-06-22T03:31:54;13.52;;;9.18;;
42364;SDS011;28498;54.400;18.566;2023-06-22T03:34:22;16.42;;;9.20;;
42364;SDS011;28498;54.400;18.566;2023-06-22T03:36:49;15.07;;;8.57;;
42364;SDS011;28498;54.400;18.566;2023-06-22T03:39:16;12.32;;;8.73;;
42364;SDS011;28498;54.400;18.566;2023-06-22T03:41:43;12.30;;;8.23;;
42364;SDS011;28498;54.400;18.566;2023-06-22T03:44:10;14.35;;;8.50;;
42364;SDS011;28498;54.400;18.566;2023-06-22T03:46:38;12.80;;;7.97;;
42364;SDS011;28498;54.400;18.566;2023-06-22T03:49:06;14.27;;;8.57;;
42364;SDS011;28498;54.400;18.566;2023-06-22T03:51:33;14.20;;;9.25;;
42364;SDS011;28498;54.400;18.566;2023-06-22T03:54:00;13.15;;;8.50;;
42364;SDS011;28498;54.400;18.566;2023-06-22T03:56:27;13.98;;;8.05;;
42364;SDS011;28498;54.400;18.566;2023-06-22T03:58:54;15.75;;;7.25;;
42364;SDS011;28498;54.400;18.566;2023-06-22T04:01:22;17.33;;;7.85;;
42364;SDS011;28498;54.400;18.566;2023-06-22T04:03:49;12.05;;;7.90;;
42364;SDS011;28498;54.400;18.566;2023-06-22T04:06:17;11.85;;;7.47;;
42364;SDS011;28498;54.400;18.566;2023-06-22T04:08:45;11.65;;;7.32;;
42364;SDS011;28498;54.400;18.566;2023-06-22T04:11:17;10.65;;;8.00;;
42364;SDS011;28498;54.400;18.566;2023-06-22T04:13:45;11.93;;;7.30;;
42364;SDS011;28498;54.400;18.566;2023-06-22T04:16:12;9.98;;;6.47;;
42364;SDS011;28498;54.400;18.566;2023-06-22T04:18:39;13.63;;;7.50;;
42364;SDS011;28498;54.400;18.566;2023-06-22T04:21:06;13.52;;;7.50;;
42364;SDS011;28498;54.400;18.566;2023-06-22T04:23:33;11.13;;;7.18;;
42364;SDS011;28498;54.400;18.566;2023-06-22T04:26:00;14.07;;;7.57;;
42364;SDS011;28498;54.400;18.566;2023-06-22T04:28:27;14.73;;;7.72;;
42364;SDS011;28498;54.400;18.566;2023-06-22T04:30:54;10.10;;;7.13;;
42364;SDS011;28498;54.400;18.566;2023-06-22T04:33:24;10.52;;;6.57;;
42364;SDS011;28498;54.400;18.566;2023-06-22T04:35:51;13.18;;;8.35;;
42364;SDS011;28498;54.400;18.566;2023-06-22T04:38:18;9.05;;;6.68;;
42364;SDS011;28498;54.400;18.566;2023-06-22T04:40:48;9.82;;;6.85;;
42364;SDS011;28498;54.400;18.566;2023-06-22T04:43:15;12.63;;;7.10;;
42364;SDS011;28498;54.400;18.566;2023-06-22T04:45:42;13.48;;;7.10;;
42364;SDS011;28498;54.400;18.566;2023-06-22T04:48:09;9.63;;;6.40;;
42364;SDS011;28498;54.400;18.566;2023-06-22T04:50:42;11.65;;;7.15;;
42364;SDS011;28498;54.400;18.566;2023-06-22T04:53:10;8.93;;;6.35;;
42364;SDS011;28498;54.400;18.566;2023-06-22T04:55:39;14.63;;;6.13;;
42364;SDS011;28498;54.400;18.566;2023-06-22T04:58:08;11.27;;;7.25;;
42364;SDS011;28498;54.400;18.566;2023-06-22T05:00:35;11.30;;;6.72;;
42364;SDS011;28498;54.400;18.566;2023-06-22T05:03:05;15.30;;;7.18;;
42364;SDS011;28498;54.400;18.566;2023-06-22T05:05:45;15.35;;;7.32;;
42364;SDS011;28498;54.400;18.566;2023-06-22T05:08:12;11.70;;;7.03;;
42364;SDS011;28498;54.400;18.566;2023-06-22T05:10:40;14.85;;;6.85;;
42364;SDS011;28498;54.400;18.566;2023-06-22T05:13:27;12.85;;;7.45;;
42364;SDS011;28498;54.400;18.566;2023-06-22T05:15:54;10.75;;;6.47;;
42364;SDS011;28498;54.400;18.566;2023-06-22T05:18:29;11.88;;;5.82;;
42364;SDS011;28498;54.400;18.566;2023-06-22T05:20:58;10.90;;;5.70;;
42364;SDS011;28498;54.400;18.566;2023-06-22T05:23:26;9.70;;;5.10;;
42364;SDS011;28498;54.400;18.566;2023-06-22T05:25:53;7.95;;;5.50;;
42364;SDS011;28498;54.400;18.566;2023-06-22T05:28:21;9.68;;;5.07;;
42364;SDS011;28498;54.400;18.566;2023-06-22T05:30:49;9.52;;;4.88;;
42364;SDS011;28498;54.400;18.566;2023-06-22T05:33:17;10.63;;;4.85;;
42364;SDS011;28498;54.400;18.566;2023-06-22T05:35:44;7.72;;;4.40;;
42364;SDS011;28498;54.400;18.566;2023-06-22T05:38:11;8.60;;;4.25;;
42364;SDS011;28498;54.400;18.566;2023-06-22T05:40:38;8.90;;;4.55;;
42364;SDS011;28498;54.400;18.566;2023-06-22T05:43:05;6.43;;;4.20;;
42364;SDS011;28498;54.400;18.566;2023-06-22T05:45:32;8.05;;;4.35;;
42364;SDS011;28498;54.400;18.566;2023-06-22T05:47:59;10.10;;;4.18;;
42364;SDS011;28498;54.400;18.566;2023-06-22T05:50:28;7.65;;;3.72;;
42364;SDS011;28498;54.400;18.566;2023-06-22T05:52:55;6.53;;;3.78;;
42364;SDS011;28498;54.400;18.566;2023-06-22T05:55:22;6.88;;;4.10;;
42364;SDS011;28498;54.400;18.566;2023-06-22T05:57:49;13.20;;;3.92;;
42364;SDS011;28498;54.400;18.566;2023-06-22T06:00:16;6.88;;;3.50;;
42364;SDS011;28498;54.400;18.566;2023-06-22T06:02:44;9.82;;;3.95;;
42364;SDS011;28498;54.400;18.566;2023-06-22T06:05:11;5.72;;;3.10;;
42364;SDS011;28498;54.400;18.566;2023-06-22T06:07:41;6.50;;;3.35;;
42364;SDS011;28498;54.400;18.566;2023-06-22T06:10:11;6.28;;;3.97;;
42364;SDS011;28498;54.400;18.566;2023-06-22T06:12:39;8.80;;;3.88;;
42364;SDS011;28498;54.400;18.566;2023-06-22T06:15:06;5.45;;;3.15;;
42364;SDS011;28498;54.400;18.566;2023-06-22T06:17:44;7.28;;;3.17;;
42364;SDS011;28498;54.400;18.566;2023-06-22T06:20:15;7.70;;;3.35;;
42364;SDS011;28498;54.400;18.566;2023-06-22T06:22:47;6.63;;;3.20;;
42364;SDS011;28498;54.400;18.566;2023-06-22T06:25:14;6.50;;;3.10;;
42364;SDS011;28498;54.400;18.566;2023-06-22T06:27:46;5.35;;;3.30;;
42364;SDS011;28498;54.400;18.566;2023-06-22T06:30:14;9.63;;;3.80;;
42364;SDS011;28498;54.400;18.566;2023-06-22T06:32:42;5.72;;;3.20;;
42364;SDS011;28498;54.400;18.566;2023-06-22T06:35:12;6.00;;;3.28;;
42364;SDS011;28498;54.400;18.566;2023-06-22T06:37:41;10.02;;;3.22;;
42364;SDS011;28498;54.400;18.566;2023-06-22T06:40:10;5.97;;;2.83;;
42364;SDS011;28498;54.400;18.566;2023-06-22T06:42:39;9.77;;;3.25;;
42364;SDS011;28498;54.400;18.566;2023-06-22T06:45:11;7.82;;;3.20;;
42364;SDS011;28498;54.400;18.566;2023-06-22T06:47:39;5.22;;;3.28;;
42364;SDS011;28498;54.400;18.566;2023-06-22T06:50:07;5.82;;;2.90;;
42364;SDS011;28498;54.400;18.566;2023-06-22T06:52:34;7.38;;;2.85;;
42364;SDS011;28498;54.400;18.566;2023-06-22T06:55:04;7.13;;;2.78;;
42364;SDS011;28498;54.400;18.566;2023-06-22T06:57:35;4.85;;;2.42;;
42364;SDS011;28498;54.400;18.566;2023-06-22T07:00:07;7.57;;;2.90;;
42364;SDS011;28498;54.400;18.566;2023-06-22T07:02:42;8.15;;;2.75;;
42364;SDS011;28498;54.400;18.566;2023-06-22T07:05:10;4.50;;;2.03;;
42364;SDS011;28498;54.400;18.566;2023-06-22T07:07:39;7.90;;;2.55;;
42364;SDS011;28498;54.400;18.566;2023-06-22T07:10:06;5.10;;;2.70;;
42364;SDS011;28498;54.400;18.566;2023-06-22T07:12:33;9.68;;;2.60;;
42364;SDS011;28498;54.400;18.566;2023-06-22T07:15:04;4.82;;;2.25;;
42364;SDS011;28498;54.400;18.566;2023-06-22T07:17:36;4.43;;;2.10;;
42364;SDS011;28498;54.400;18.566;2023-06-22T07:20:04;6.55;;;2.55;;
42364;SDS011;28498;54.400;18.566;2023-06-22T07:22:41;4.78;;;1.98;;
42364;SDS011;28498;54.400;18.566;2023-06-22T07:25:09;4.63;;;2.40;;
42364;SDS011;28498;54.400;18.566;2023-06-22T07:27:37;8.05;;;2.22;;
42364;SDS011;28498;54.400;18.566;2023-06-22T07:30:06;8.32;;;2.47;;
42364;SDS011;28498;54.400;18.566;2023-06-22T07:32:34;5.47;;;2.20;;
42364;SDS011;28498;54.400;18.566;2023-06-22T07:35:02;7.50;;;2.40;;
42364;SDS011;28498;54.400;18.566;2023-06-22T07:37:30;4.72;;;2.05;;
42364;SDS011;28498;54.400;18.566;2023-06-22T07:39:59;7.15;;;2.42;;
42364;SDS011;28498;54.400;18.566;2023-06-22T07:42:27;8.35;;;2.30;;
42364;SDS011;28498;54.400;18.566;2023-06-22T07:44:59;4.70;;;2.25;;
42364;SDS011;28498;54.400;18.566;2023-06-22T07:47:26;4.93;;;2.22;;
42364;SDS011;28498;54.400;18.566;2023-06-22T07:49:55;5.88;;;2.55;;
42364;SDS011;28498;54.400;18.566;2023-06-22T07:52:32;4.53;;;2.58;;
42364;SDS011;28498;54.400;18.566;2023-06-22T07:54:59;4.95;;;2.22;;
42364;SDS011;28498;54.400;18.566;2023-06-22T07:57:27;7.25;;;2.45;;
42364;SDS011;28498;54.400;18.566;2023-06-22T08:00:00;4.10;;;2.30;;
42364;SDS011;28498;54.400;18.566;2023-06-22T08:02:30;5.20;;;2.30;;
42364;SDS011;28498;54.400;18.566;2023-06-22T08:04:58;5.90;;;2.47;;
42364;SDS011;28498;54.400;18.566;2023-06-22T08:07:45;12.35;;;3.20;;
42364;SDS011;28498;54.400;18.566;2023-06-22T08:10:14;6.97;;;2.38;;
42364;SDS011;28498;54.400;18.566;2023-06-22T08:12:41;6.82;;;2.55;;
42364;SDS011;28498;54.400;18.566;2023-06-22T08:15:09;4.72;;;2.28;;
42364;SDS011;28498;54.400;18.566;2023-06-22T08:17:37;5.20;;;2.60;;
42364;SDS011;28498;54.400;18.566;2023-06-22T08:20:06;4.18;;;2.08;;
42364;SDS011;28498;54.400;18.566;2023-06-22T08:22:39;4.63;;;2.70;;
42364;SDS011;28498;54.400;18.566;2023-06-22T08:25:07;5.07;;;2.63;;
42364;SDS011;28498;54.400;18.566;2023-06-22T08:27:35;7.07;;;2.13;;
42364;SDS011;28498;54.400;18.566;2023-06-22T08:30:02;4.75;;;1.90;;
42364;SDS011;28498;54.400;18.566;2023-06-22T08:32:30;6.00;;;2.45;;
42364;SDS011;28498;54.400;18.566;2023-06-22T08:34:59;3.88;;;2.20;;
42364;SDS011;28498;54.400;18.566;2023-06-22T08:37:27;5.85;;;2.00;;
42364;SDS011;28498;54.400;18.566;2023-06-22T08:40:04;4.22;;;2.33;;
42364;SDS011;28498;54.400;18.566;2023-06-22T08:42:39;5.35;;;2.20;;
42364;SDS011;28498;54.400;18.566;2023-06-22T08:45:08;5.80;;;2.80;;
42364;SDS011;28498;54.400;18.566;2023-06-22T08:47:35;4.68;;;2.33;;
42364;SDS011;28498;54.400;18.566;2023-06-22T08:50:03;5.57;;;2.30;;
42364;SDS011;28498;54.400;18.566;2023-06-22T08:52:31;4.45;;;2.20;;
42364;SDS011;28498;54.400;18.566;2023-06-22T08:54:58;5.30;;;2.55;;
42364;SDS011;28498;54.400;18.566;2023-06-22T08:57:25;7.60;;;2.20;;
42364;SDS011;28498;54.400;18.566;2023-06-22T08:59:53;4.78;;;2.00;;
42364;SDS011;28498;54.400;18.566;2023-06-22T09:02:25;5.82;;;2.10;;
42364;SDS011;28498;54.400;18.566;2023-06-22T09:04:57;5.15;;;2.13;;
42364;SDS011;28498;54.400;18.566;2023-06-22T09:07:25;7.00;;;2.08;;
42364;SDS011;28498;54.400;18.566;2023-06-22T09:09:52;5.43;;;2.00;;
42364;SDS011;28498;54.400;18.566;2023-06-22T09:12:20;3.78;;;1.92;;
42364;SDS011;28498;54.400;18.566;2023-06-22T09:14:49;2.83;;;1.40;;
42364;SDS011;28498;54.400;18.566;2023-06-22T09:17:16;4.22;;;1.98;;
42364;SDS011;28498;54.400;18.566;2023-06-22T09:19:43;4.32;;;2.03;;
42364;SDS011;28498;54.400;18.566;2023-06-22T09:22:11;5.60;;;2.97;;
42364;SDS011;28498;54.400;18.566;2023-06-22T09:24:38;5.38;;;2.35;;
42364;SDS011;28498;54.400;18.566;2023-06-22T09:27:05;6.28;;;2.00;;
42364;SDS011;28498;54.400;18.566;2023-06-22T09:29:32;4.70;;;1.90;;
42364;SDS011;28498;54.400;18.566;2023-06-22T09:32:02;4.50;;;1.77;;
42364;SDS011;28498;54.400;18.566;2023-06-22T09:34:29;5.50;;;2.30;;
42364;SDS011;28498;54.400;18.566;2023-06-22T09:36:58;6.22;;;2.50;;
42364;SDS011;28498;54.400;18.566;2023-06-22T09:39:27;5.20;;;2.40;;
42364;SDS011;28498;54.400;18.566;2023-06-22T09:41:54;4.03;;;1.98;;
42364;SDS011;28498;54.400;18.566;2023-06-22T09:44:21;11.23;;;3.33;;
42364;SDS011;28498;54.400;18.566;2023-06-22T09:46:48;6.32;;;2.00;;
42364;SDS011;28498;54.400;18.566;2023-06-22T09:49:16;5.35;;;2.40;;
42364;SDS011;28498;54.400;18.566;2023-06-22T09:51:43;4.82;;;2.28;;
42364;SDS011;28498;54.400;18.566;2023-06-22T09:54:10;4.20;;;1.88;;
42364;SDS011;28498;54.400;18.566;2023-06-22T09:56:37;8.73;;;2.25;;
42364;SDS011;28498;54.400;18.566;2023-06-22T09:59:04;4.97;;;2.03;;
42364;SDS011;28498;54.400;18.566;2023-06-22T10:01:44;6.18;;;2.17;;
42364;SDS011;28498;54.400;18.566;2023-06-22T10:04:11;4.32;;;1.95;;
42364;SDS011;28498;54.400;18.566;2023-06-22T10:06:38;3.88;;;2.20;;
42364;SDS011;28498;54.400;18.566;2023-06-22T10:09:07;6.93;;;2.00;;
42364;SDS011;28498;54.400;18.566;2023-06-22T10:11:34;3.90;;;1.65;;
42364;SDS011;28498;54.400;18.566;2023-06-22T10:14:02;5.80;;;2.38;;
42364;SDS011;28498;54.400;18.566;2023-06-22T10:16:30;5.35;;;1.92;;
42364;SDS011;28498;54.400;18.566;2023-06-22T10:18:58;4.35;;;2.20;;
42364;SDS011;28498;54.400;18.566;2023-06-22T10:21:26;6.90;;;2.22;;
42364;SDS011;28498;54.400;18.566;2023-06-22T10:23:55;5.88;;;2.35;;
42364;SDS011;28498;54.400;18.566;2023-06-22T10:26:22;5.88;;;2.35;;
42364;SDS011;28498;54.400;18.566;2023-06-22T10:28:49;5.50;;;2.33;;
42364;SDS011;28498;54.400;18.566;2023-06-22T10:31:32;7.07;;;2.10;;
42364;SDS011;28498;54.400;18.566;2023-06-22T10:34:00;3.53;;;2.30;;
42364;SDS011;28498;54.400;18.566;2023-06-22T10:36:27;4.30;;;2.30;;
42364;SDS011;28498;54.400;18.566;2023-06-22T10:38:54;6.25;;;2.10;;
42364;SDS011;28498;54.400;18.566;2023-06-22T10:41:22;3.58;;;1.80;;
42364;SDS011;28498;54.400;18.566;2023-06-22T10:43:49;5.70;;;2.40;;
42364;SDS011;28498;54.400;18.566;2023-06-22T10:46:16;3.53;;;1.90;;
42364;SDS011;28498;54.400;18.566;2023-06-22T10:48:43;4.13;;;1.85;;
42364;SDS011;28498;54.400;18.566;2023-06-22T10:51:10;4.22;;;1.75;;
42364;SDS011;28498;54.400;18.566;2023-06-22T10:53:37;4.35;;;1.67;;
42364;SDS011;28498;54.400;18.566;2023-06-22T10:56:04;3.47;;;1.70;;
42364;SDS011;28498;54.400;18.566;2023-06-22T10:58:31;4.80;;;2.15;;
42364;SDS011;28498;54.400;18.566;2023-06-22T11:00:58;3.45;;;1.70;;
42364;SDS011;28498;54.400;18.566;2023-06-22T11:03:26;5.20;;;2.03;;
42364;SDS011;28498;54.400;18.566;2023-06-22T11:05:53;4.10;;;1.80;;
42364;SDS011;28498;54.400;18.566;2023-06-22T11:08:20;2.55;;;1.50;;
42364;SDS011;28498;54.400;18.566;2023-06-22T11:10:47;5.40;;;1.90;;
42364;SDS011;28498;54.400;18.566;2023-06-22T11:13:15;4.65;;;1.90;;
42364;SDS011;28498;54.400;18.566;2023-06-22T11:15:42;3.13;;;1.55;;
42364;SDS011;28498;54.400;18.566;2023-06-22T11:18:09;3.25;;;1.83;;
42364;SDS011;28498;54.400;18.566;2023-06-22T11:20:36;3.92;;;2.00;;
42364;SDS011;28498;54.400;18.566;2023-06-22T11:23:05;3.90;;;2.00;;
42364;SDS011;28498;54.400;18.566;2023-06-22T11:25:33;4.90;;;1.90;;
42364;SDS011;28498;54.400;18.566;2023-06-22T11:28:04;5.25;;;1.73;;
42364;SDS011;28498;54.400;18.566;2023-06-22T11:30:31;5.40;;;2.13;;
42364;SDS011;28498;54.400;18.566;2023-06-22T11:32:59;4.50;;;2.58;;
42364;SDS011;28498;54.400;18.566;2023-06-22T11:35:26;7.22;;;2.40;;
42364;SDS011;28498;54.400;18.566;2023-06-22T11:37:53;3.92;;;2.28;;
42364;SDS011;28498;54.400;18.566;2023-06-22T11:40:22;5.45;;;2.60;;
42364;SDS011;28498;54.400;18.566;2023-06-22T11:42:49;5.93;;;2.30;;
42364;SDS011;28498;54.400;18.566;2023-06-22T11:45:16;8.30;;;2.58;;
42364;SDS011;28498;54.400;18.566;2023-06-22T11:47:44;6.90;;;2.67;;
42364;SDS011;28498;54.400;18.566;2023-06-22T11:50:11;10.05;;;2.70;;
42364;SDS011;28498;54.400;18.566;2023-06-22T11:52:39;3.47;;;2.03;;
42364;SDS011;28498;54.400;18.566;2023-06-22T11:55:06;8.18;;;3.40;;
42364;SDS011;28498;54.400;18.566;2023-06-22T11:57:35;5.72;;;2.65;;
42364;SDS011;28498;54.400;18.566;2023-06-22T12:00:03;6.35;;;2.78;;
42364;SDS011;28498;54.400;18.566;2023-06-22T12:02:42;5.70;;;2.75;;
42364;SDS011;28498;54.400;18.566;2023-06-22T12:05:11;5.82;;;2.50;;
42364;SDS011;28498;54.400;18.566;2023-06-22T12:07:38;5.85;;;2.40;;
42364;SDS011;28498;54.400;18.566;2023-06-22T12:10:06;4.18;;;2.40;;
42364;SDS011;28498;54.400;18.566;2023-06-22T12:12:33;5.07;;;2.65;;
42364;SDS011;28498;54.400;18.566;2023-06-22T12:15:00;4.55;;;2.55;;
42364;SDS011;28498;54.400;18.566;2023-06-22T12:17:30;4.22;;;2.20;;
42364;SDS011;28498;54.400;18.566;2023-06-22T12:19:58;6.95;;;2.55;;
42364;SDS011;28498;54.400;18.566;2023-06-22T12:22:25;6.07;;;2.83;;
42364;SDS011;28498;54.400;18.566;2023-06-22T12:24:52;6.93;;;2.90;;
42364;SDS011;28498;54.400;18.566;2023-06-22T12:27:19;6.25;;;2.78;;
42364;SDS011;28498;54.400;18.566;2023-06-22T12:29:47;5.18;;;2.63;;
42364;SDS011;28498;54.400;18.566;2023-06-22T12:32:14;5.45;;;2.60;;
42364;SDS011;28498;54.400;18.566;2023-06-22T12:34:42;6.18;;;2.60;;
42364;SDS011;28498;54.400;18.566;2023-06-22T12:37:09;5.97;;;2.72;;
42364;SDS011;28498;54.400;18.566;2023-06-22T12:39:37;5.22;;;2.72;;
42364;SDS011;28498;54.400;18.566;2023-06-22T12:42:05;4.40;;;2.38;;
42364;SDS011;28498;54.400;18.566;2023-06-22T12:44:35;6.10;;;2.80;;
42364;SDS011;28498;54.400;18.566;2023-06-22T12:47:03;4.78;;;2.40;;
42364;SDS011;28498;54.400;18.566;2023-06-22T12:49:31;6.88;;;2.70;;
42364;SDS011;28498;54.400;18.566;2023-06-22T12:51:58;9.50;;;2.83;;
42364;SDS011;28498;54.400;18.566;2023-06-22T12:54:25;5.43;;;2.50;;
42364;SDS011;28498;54.400;18.566;2023-06-22T12:56:52;5.95;;;2.63;;
42364;SDS011;28498;54.400;18.566;2023-06-22T12:59:21;10.15;;;2.45;;
42364;SDS011;28498;54.400;18.566;2023-06-22T13:01:48;6.85;;;2.72;;
42364;SDS011;28498;54.400;18.566;2023-06-22T13:04:15;9.95;;;2.70;;
42364;SDS011;28498;54.400;18.566;2023-06-22T13:06:42;6.75;;;2.72;;
42364;SDS011;28498;54.400;18.566;2023-06-22T13:09:15;6.50;;;2.53;;
42364;SDS011;28498;54.400;18.566;2023-06-22T13:11:47;7.10;;;2.72;;
42364;SDS011;28498;54.400;18.566;2023-06-22T13:14:14;5.32;;;2.67;;
42364;SDS011;28498;54.400;18.566;2023-06-22T13:16:42;3.92;;;2.28;;
42364;SDS011;28498;54.400;18.566;2023-06-22T13:19:09;7.78;;;2.40;;
42364;SDS011;28498;54.400;18.566;2023-06-22T13:21:37;7.18;;;2.42;;
42364;SDS011;28498;54.400;18.566;2023-06-22T13:24:04;4.82;;;2.67;;
42364;SDS011;28498;54.400;18.566;2023-06-22T13:26:32;4.43;;;2.60;;
42364;SDS011;28498;54.400;18.566;2023-06-22T13:29:00;7.00;;;2.40;;
42364;SDS011;28498;54.400;18.566;2023-06-22T13:31:27;4.40;;;2.63;;
42364;SDS011;28498;54.400;18.566;2023-06-22T13:33:54;5.38;;;2.10;;
42364;SDS011;28498;54.400;18.566;2023-06-22T13:36:21;5.07;;;2.40;;
42364;SDS011;28498;54.400;18.566;2023-06-22T13:38:49;6.00;;;2.38;;
42364;SDS011;28498;54.400;18.566;2023-06-22T13:41:16;6.55;;;2.70;;
42364;SDS011;28498;54.400;18.566;2023-06-22T13:43:43;6.65;;;2.40;;
42364;SDS011;28498;54.400;18.566;2023-06-22T13:46:10;6.63;;;2.72;;
42364;SDS011;28498;54.400;18.566;2023-06-22T13:48:38;4.70;;;2.70;;
42364;SDS011;28498;54.400;18.566;2023-06-22T13:51:05;5.60;;;2.20;;
42364;SDS011;28498;54.400;18.566;2023-06-22T13:53:32;6.22;;;2.45;;
42364;SDS011;28498;54.400;18.566;2023-06-22T13:55:59;4.72;;;2.10;;
42364;SDS011;28498;54.400;18.566;2023-06-22T13:58:26;5.88;;;2.60;;
42364;SDS011;28498;54.400;18.566;2023-06-22T14:00:54;5.40;;;2.22;;
42364;SDS011;28498;54.400;18.566;2023-06-22T14:03:22;7.28;;;2.30;;
42364;SDS011;28498;54.400;18.566;2023-06-22T14:05:49;4.97;;;2.70;;
42364;SDS011;28498;54.400;18.566;2023-06-22T14:08:20;7.70;;;2.28;;
42364;SDS011;28498;54.400;18.566;2023-06-22T14:10:52;4.00;;;2.50;;
42364;SDS011;28498;54.400;18.566;2023-06-22T14:13:20;5.78;;;2.40;;
42364;SDS011;28498;54.400;18.566;2023-06-22T14:15:47;9.00;;;2.25;;
42364;SDS011;28498;54.400;18.566;2023-06-22T14:18:14;5.00;;;2.53;;
42364;SDS011;28498;54.400;18.566;2023-06-22T14:20:41;8.40;;;2.50;;
42364;SDS011;28498;54.400;18.566;2023-06-22T14:23:09;4.65;;;2.45;;
42364;SDS011;28498;54.400;18.566;2023-06-22T14:25:36;5.38;;;2.40;;
42364;SDS011;28498;54.400;18.566;2023-06-22T14:28:03;6.55;;;2.63;;
42364;SDS011;28498;54.400;18.566;2023-06-22T14:30:30;5.93;;;2.53;;
42364;SDS011;28498;54.400;18.566;2023-06-22T14:32:57;4.68;;;2.42;;
42364;SDS011;28498;54.400;18.566;2023-06-22T14:35:27;5.30;;;2.53;;
42364;SDS011;28498;54.400;18.566;2023-06-22T14:37:54;5.63;;;2.72;;
42364;SDS011;28498;54.400;18.566;2023-06-22T14:40:21;4.78;;;2.45;;